Time;durP1;ratioP1;P1;durP2;ratioP2;P2;SDS_P1;SDS_P2;PMS_P1;PMS_P2;Temp;Humidity;BMP_temperature;BMP_pressure;BME280_temperature;BME280_humidity;BME280_pressure;Samples;Min_cycle;Max_cycle;Signal;HPM_P1;HPM_P2
2023/01/16 00:00:52;;;;;;;408.50;163.68;;;5.50;99.90;;;;;;5076119;28;20071;-58
2023/01/16 00:03:19;;;;;;;343.42;143.88;;;5.50;99.90;;;;;;5076030;28;20040;-58
2023/01/16 00:05:45;;;;;;;340.10;141.00;;;5.50;99.90;;;;;;5076093;28;20366;-58
2023/01/16 00:08:11;;;;;;;310.27;136.70;;;5.50;99.90;;;;;;5075999;28;20040;-58
2023/01/16 00:10:37;;;;;;;328.67;140.48;;;5.50;99.90;;;;;;5075741;28;20411;-58
2023/01/16 00:13:03;;;;;;;341.90;145.23;;;5.50;99.90;;;;;;5075881;28;20032;-58
2023/01/16 00:15:29;;;;;;;437.88;168.55;;;5.50;99.90;;;;;;5075796;28;20032;-58
2023/01/16 00:17:55;;;;;;;432.38;164.98;;;5.60;99.90;;;;;;5075580;28;20422;-58
2023/01/16 00:20:21;;;;;;;379.73;151.52;;;5.60;99.90;;;;;;5056296;28;20056;-58
2023/01/16 00:22:47;;;;;;;329.02;137.38;;;5.60;99.90;;;;;;5055586;28;20468;-58
2023/01/16 00:25:13;;;;;;;308.50;132.10;;;5.70;99.90;;;;;;5055760;28;20039;-58
2023/01/16 00:27:39;;;;;;;330.40;140.85;;;5.70;99.90;;;;;;5055703;28;20048;-58
2023/01/16 00:30:06;;;;;;;322.30;138.00;;;5.60;99.90;;;;;;5056623;28;20025;-58
2023/01/16 00:32:32;;;;;;;310.15;135.93;;;5.60;99.90;;;;;;5075471;28;20020;-58
2023/01/16 00:34:58;;;;;;;380.52;152.15;;;5.60;99.90;;;;;;5075688;28;20028;-58
2023/01/16 00:37:24;;;;;;;347.88;147.63;;;5.60;99.90;;;;;;5074023;28;20087;-58
2023/01/16 00:39:51;;;;;;;353.63;148.55;;;5.60;99.90;;;;;;5075675;28;20029;-58
2023/01/16 00:42:18;;;;;;;342.80;141.60;;;5.60;99.90;;;;;;5075250;28;20036;-58
2023/01/16 00:44:44;;;;;;;327.77;139.25;;;5.50;99.90;;;;;;5075206;28;20067;-58
2023/01/16 00:47:10;;;;;;;318.70;141.38;;;5.50;99.90;;;;;;5075138;28;20470;-58
2023/01/16 00:49:36;;;;;;;336.70;143.98;;;5.50;99.90;;;;;;5075104;28;20032;-58
2023/01/16 00:52:02;;;;;;;369.63;151.40;;;5.60;99.90;;;;;;5075109;28;20040;-58
2023/01/16 00:54:28;;;;;;;357.10;149.20;;;5.60;99.90;;;;;;5074961;28;20032;-58
2023/01/16 00:56:54;;;;;;;359.00;146.00;;;5.50;99.90;;;;;;5075372;28;20036;-58
2023/01/16 00:59:20;;;;;;;335.35;141.95;;;5.60;99.90;;;;;;5074954;28;20051;-58
2023/01/16 01:01:46;;;;;;;350.33;149.60;;;5.60;99.90;;;;;;5074675;28;20079;-58
2023/01/16 01:04:12;;;;;;;368.25;150.98;;;5.70;99.90;;;;;;5074821;28;20371;-58
2023/01/16 01:06:39;;;;;;;340.15;143.70;;;5.70;99.90;;;;;;5074852;28;20123;-58
2023/01/16 01:09:05;;;;;;;351.80;144.98;;;5.60;99.90;;;;;;5074860;28;20108;-58
2023/01/16 01:11:31;;;;;;;313.30;134.95;;;5.70;99.90;;;;;;5074674;28;20072;-58
2023/01/16 01:13:57;;;;;;;325.83;133.13;;;5.70;99.90;;;;;;5074608;28;20493;-58
2023/01/16 01:16:25;;;;;;;339.42;138.93;;;5.70;99.90;;;;;;5074583;28;20087;-58
2023/01/16 01:18:51;;;;;;;357.70;143.07;;;5.70;99.90;;;;;;5067937;28;20048;-58
2023/01/16 01:21:17;;;;;;;365.58;147.63;;;5.70;99.90;;;;;;5054706;28;20253;-58
2023/01/16 01:23:42;;;;;;;371.20;146.52;;;5.70;99.90;;;;;;5054411;28;20033;-57
2023/01/16 01:26:10;;;;;;;335.92;136.82;;;5.70;99.90;;;;;;5054571;28;20082;-58
2023/01/16 01:28:37;;;;;;;315.95;132.18;;;5.70;99.90;;;;;;5054503;28;20044;-58
2023/01/16 01:31:05;;;;;;;278.58;123.50;;;5.80;99.90;;;;;;5063627;28;20039;-58
2023/01/16 01:33:31;;;;;;;266.42;119.97;;;5.80;99.90;;;;;;5073743;28;20049;-58
2023/01/16 01:35:57;;;;;;;263.23;115.43;;;5.80;99.90;;;;;;5074438;28;20545;-58
2023/01/16 01:38:23;;;;;;;257.85;117.03;;;5.80;99.90;;;;;;5074371;28;20115;-58
2023/01/16 01:40:49;;;;;;;262.17;118.50;;;5.80;99.90;;;;;;5074416;28;20027;-58
2023/01/16 01:43:16;;;;;;;273.60;123.50;;;5.70;99.90;;;;;;5074378;28;20390;-58
2023/01/16 01:45:51;;;;;;;294.73;128.13;;;5.70;99.90;;;;;;5074345;28;20541;-58
2023/01/16 01:48:24;;;;;;;288.92;127.72;;;5.70;99.90;;;;;;5074412;28;20544;-58
2023/01/16 01:51:05;;;;;;;314.10;135.50;;;5.70;99.90;;;;;;5056669;28;20029;-58
2023/01/16 01:53:43;;;;;;;311.60;133.48;;;5.60;99.90;;;;;;5074416;28;20428;-58
2023/01/16 01:56:36;;;;;;;299.10;132.05;;;5.60;99.90;;;;;;5074159;28;20032;-58
2023/01/16 01:59:07;;;;;;;303.55;132.52;;;5.60;99.90;;;;;;5074006;28;20036;-58
2023/01/16 02:01:33;;;;;;;264.83;124.43;;;5.60;99.90;;;;;;5074263;28;20017;-58
2023/01/16 02:04:08;;;;;;;305.73;144.90;;;5.60;99.90;;;;;;5074262;28;20063;-58
2023/01/16 02:06:42;;;;;;;365.63;182.48;;;5.60;99.90;;;;;;5074270;28;20474;-58
2023/01/16 02:09:08;;;;;;;372.63;194.55;;;5.70;99.90;;;;;;5073921;28;20091;-59
2023/01/16 02:12:00;;;;;;;381.52;192.57;;;5.70;99.90;;;;;;5074331;28;20041;-58
2023/01/16 02:14:30;;;;;;;409.92;204.45;;;5.80;99.90;;;;;;5074096;28;20024;-58
2023/01/16 02:20:21;;;;;;;405.92;202.18;;;5.70;99.90;;;;;;5058924;28;20033;-58
2023/01/16 02:23:24;;;;;;;378.65;193.50;;;5.80;99.90;;;;;;5053938;28;20056;-57
2023/01/16 02:26:24;;;;;;;331.98;162.40;;;5.70;99.90;;;;;;5054108;28;20074;-58
2023/01/16 02:29:08;;;;;;;277.20;136.70;;;5.70;99.90;;;;;;5054157;28;20095;-58
2023/01/16 02:31:58;;;;;;;259.20;123.28;;;5.70;99.90;;;;;;5067461;28;20036;-58
2023/01/16 02:34:44;;;;;;;272.52;125.15;;;5.60;99.90;;;;;;5073879;28;20397;-58
2023/01/16 02:37:19;;;;;;;277.85;126.28;;;5.60;99.90;;;;;;5073862;28;20382;-58
2023/01/16 02:40:00;;;;;;;293.48;129.75;;;5.70;99.90;;;;;;5073868;28;20024;-58
2023/01/16 02:42:44;;;;;;;320.58;140.55;;;5.70;99.90;;;;;;5073797;28;20351;-58
2023/01/16 02:45:25;;;;;;;290.95;129.70;;;5.70;99.90;;;;;;5077262;28;20025;-58
2023/01/16 02:48:12;;;;;;;267.10;117.90;;;5.80;99.90;;;;;;5077453;28;20048;-58
2023/01/16 02:50:56;;;;;;;247.05;108.13;;;5.80;99.90;;;;;;5077715;28;20466;-58
2023/01/16 02:53:52;;;;;;;223.93;104.50;;;5.80;99.90;;;;;;5077306;28;20036;-58
2023/01/16 02:56:36;;;;;;;236.23;106.60;;;5.80;99.90;;;;;;5077132;28;20032;-58
2023/01/16 02:59:03;;;;;;;230.20;106.63;;;5.80;99.90;;;;;;5077294;28;20036;-58
2023/01/16 03:01:32;;;;;;;226.23;108.75;;;5.70;99.90;;;;;;5077331;28;20029;-58
2023/01/16 03:03:58;;;;;;;225.18;102.38;;;5.60;99.90;;;;;;5076051;28;20131;-58
2023/01/16 03:06:44;;;;;;;211.48;99.82;;;5.70;99.90;;;;;;5077070;28;20032;-58
2023/01/16 03:09:25;;;;;;;217.77;101.68;;;5.70;99.90;;;;;;5076988;28;20043;-58
2023/01/16 03:12:19;;;;;;;219.25;101.00;;;5.70;99.90;;;;;;5077091;28;20074;-58
2023/01/16 03:14:45;;;;;;;213.55;98.28;;;5.70;99.90;;;;;;5077104;28;20516;-58
2023/01/16 03:17:21;;;;;;;211.75;97.82;;;5.70;99.90;;;;;;5076757;28;20463;-58
2023/01/16 03:20:17;;;;;;;204.90;94.50;;;5.60;99.90;;;;;;5062610;28;20318;-58
2023/01/16 03:23:17;;;;;;;221.18;96.70;;;5.60;99.90;;;;;;5056779;28;20064;-58
2023/01/16 03:26:26;;;;;;;227.73;101.60;;;5.50;99.90;;;;;;5056897;28;20043;-58
2023/01/16 03:29:02;;;;;;;316.85;124.78;;;5.40;99.90;;;;;;5050236;28;20048;-58
2023/01/16 03:31:47;;;;;;;268.88;111.40;;;5.30;99.90;;;;;;5069506;28;20024;-58
2023/01/16 03:34:20;;;;;;;242.50;101.75;;;5.30;99.90;;;;;;5076614;28;20035;-58
2023/01/16 03:36:58;;;;;;;259.30;111.07;;;5.20;99.90;;;;;;5076528;28;20497;-58
2023/01/16 03:39:29;;;;;;;259.88;110.88;;;5.20;99.90;;;;;;5076539;28;20497;-58
2023/01/16 03:42:00;;;;;;;284.08;117.53;;;5.20;99.90;;;;;;5076405;28;20028;-58
2023/01/16 03:44:32;;;;;;;293.35;120.68;;;5.10;99.90;;;;;;5076494;28;20029;-58
2023/01/16 03:47:00;;;;;;;223.55;94.38;;;5.10;99.90;;;;;;5076511;28;20035;-58
2023/01/16 03:49:32;;;;;;;221.32;95.93;;;5.00;99.90;;;;;;5076290;28;20051;-58
2023/01/16 03:52:02;;;;;;;236.27;102.18;;;5.00;99.90;;;;;;5076384;28;20039;-58
2023/01/16 03:55:02;;;;;;;252.05;107.80;;;5.00;99.90;;;;;;5075997;28;20025;-58
2023/01/16 03:57:32;;;;;;;233.95;100.18;;;5.00;99.90;;;;;;5061386;28;20119;-58
2023/01/16 03:59:59;;;;;;;242.55;98.45;;;5.00;99.90;;;;;;5076178;28;20553;-58
2023/01/16 04:02:55;;;;;;;219.70;96.00;;;4.90;99.90;;;;;;5076101;28;20082;-58
2023/01/16 04:05:28;;;;;;;206.88;88.35;;;4.90;99.90;;;;;;5076211;28;20025;-58
2023/01/16 04:08:09;;;;;;;185.45;82.60;;;4.90;99.90;;;;;;5076188;28;20102;-58
2023/01/16 04:10:39;;;;;;;181.15;77.68;;;4.90;99.90;;;;;;5075782;28;20040;-58
2023/01/16 04:13:22;;;;;;;175.77;79.03;;;4.80;99.90;;;;;;5076264;28;20040;-58
2023/01/16 04:15:53;;;;;;;186.30;82.55;;;4.80;99.90;;;;;;5075921;28;20626;-58
2023/01/16 04:18:24;;;;;;;199.80;85.20;;;4.80;99.90;;;;;;5073387;28;20024;-58
2023/01/16 04:20:50;;;;;;;185.90;81.20;;;4.90;99.90;;;;;;5055762;28;20467;-58
2023/01/16 04:23:16;;;;;;;189.77;81.88;;;4.80;99.90;;;;;;5055750;28;20482;-58
2023/01/16 04:25:44;;;;;;;169.45;77.57;;;4.90;99.90;;;;;;5055717;28;20028;-58
2023/01/16 04:28:10;;;;;;;155.82;70.50;;;4.90;99.90;;;;;;5055585;28;20059;-58
2023/01/16 04:30:36;;;;;;;156.40;70.53;;;4.90;99.90;;;;;;5061017;28;20462;-58
2023/01/16 04:33:04;;;;;;;154.93;70.32;;;4.90;99.90;;;;;;5075594;28;20032;-58
2023/01/16 04:35:30;;;;;;;139.82;62.67;;;4.90;99.90;;;;;;5075347;28;20078;-58
2023/01/16 04:37:56;;;;;;;138.70;63.03;;;5.00;99.90;;;;;;5075371;28;20025;-58
2023/01/16 04:40:23;;;;;;;142.85;67.20;;;5.00;99.90;;;;;;5075326;28;20514;-58
2023/01/16 04:42:48;;;;;;;168.75;80.07;;;4.90;99.90;;;;;;5075355;28;20060;-58
2023/01/16 04:45:14;;;;;;;184.95;84.15;;;4.90;99.90;;;;;;5075216;28;20040;-58
2023/01/16 04:47:45;;;;;;;189.80;85.22;;;4.90;99.90;;;;;;5075231;28;20024;-58
2023/01/16 04:50:11;;;;;;;220.38;96.20;;;5.00;99.90;;;;;;5075098;28;20529;-58
2023/01/16 04:52:37;;;;;;;245.85;103.15;;;5.00;99.90;;;;;;5075024;28;20115;-58
2023/01/16 04:55:03;;;;;;;277.85;112.50;;;5.00;99.90;;;;;;5074968;28;20054;-58
2023/01/16 04:57:29;;;;;;;293.75;118.07;;;4.90;99.90;;;;;;5075112;28;20598;-58
2023/01/16 04:59:55;;;;;;;245.45;105.63;;;4.90;99.90;;;;;;5074923;28;20037;-58
2023/01/16 05:02:21;;;;;;;248.10;101.35;;;4.90;99.90;;;;;;5074966;28;20029;-58
2023/01/16 05:04:47;;;;;;;234.43;94.40;;;4.90;99.90;;;;;;5074962;28;20493;-58
2023/01/16 05:07:13;;;;;;;261.27;104.20;;;4.90;99.90;;;;;;5075218;28;20109;-58
2023/01/16 05:09:39;;;;;;;264.65;107.60;;;4.90;99.90;;;;;;5074529;28;20045;-58
2023/01/16 05:12:05;;;;;;;270.67;111.70;;;4.80;99.90;;;;;;5074805;28;20100;-58
2023/01/16 05:14:31;;;;;;;262.73;106.18;;;4.80;99.90;;;;;;5074706;28;20037;-58
2023/01/16 05:16:57;;;;;;;261.65;105.18;;;4.70;99.90;;;;;;5074762;28;20081;-58
2023/01/16 05:19:23;;;;;;;252.38;103.25;;;4.80;99.90;;;;;;5063662;28;20074;-58
2023/01/16 05:21:49;;;;;;;250.40;97.78;;;4.70;99.90;;;;;;5054710;28;20368;-58
2023/01/16 05:24:14;;;;;;;229.70;97.95;;;4.70;99.90;;;;;;5054476;28;20029;-58
2023/01/16 05:26:40;;;;;;;195.00;86.10;;;4.70;99.90;;;;;;5054769;28;20037;-58
2023/01/16 05:29:06;;;;;;;157.43;66.43;;;4.80;99.90;;;;;;5054573;28;20116;-58
2023/01/16 05:31:32;;;;;;;173.05;73.25;;;4.80;99.90;;;;;;5067794;28;20064;-58
2023/01/16 05:33:58;;;;;;;134.00;60.53;;;4.80;99.90;;;;;;5074455;28;20107;-58
2023/01/16 05:36:24;;;;;;;144.60;67.85;;;4.90;99.90;;;;;;5074339;28;20044;-58
2023/01/16 05:38:50;;;;;;;127.63;58.65;;;4.80;99.90;;;;;;5074791;28;20055;-58
2023/01/16 05:41:16;;;;;;;116.88;54.30;;;4.80;99.90;;;;;;5074560;28;20046;-59
2023/01/16 05:43:42;;;;;;;136.32;59.60;;;4.90;99.90;;;;;;5073118;28;20032;-58
2023/01/16 05:46:09;;;;;;;126.68;57.40;;;4.90;99.90;;;;;;5074393;28;20507;-58
2023/01/16 05:48:36;;;;;;;124.75;56.38;;;5.00;99.90;;;;;;5074371;28;20033;-58
2023/01/16 05:51:03;;;;;;;123.97;58.10;;;5.10;99.90;;;;;;5074304;28;20052;-58
2023/01/16 05:53:30;;;;;;;141.68;63.20;;;5.20;99.90;;;;;;5074244;28;20047;-58
2023/01/16 05:55:57;;;;;;;136.32;65.60;;;5.00;99.90;;;;;;5074215;28;20040;-58
2023/01/16 05:58:23;;;;;;;148.48;67.85;;;5.10;99.90;;;;;;5074270;28;20029;-58
2023/01/16 06:00:49;;;;;;;138.70;65.00;;;5.10;99.90;;;;;;5074225;28;20104;-58
2023/01/16 06:03:15;;;;;;;127.53;63.53;;;5.00;99.90;;;;;;5074142;28;20505;-58
2023/01/16 06:05:42;;;;;;;138.75;64.90;;;5.00;99.90;;;;;;5074205;28;20150;-58
2023/01/16 06:08:08;;;;;;;134.60;65.93;;;5.10;99.90;;;;;;5074040;28;20025;-58
2023/01/16 06:10:34;;;;;;;128.48;60.40;;;5.10;99.90;;;;;;5073923;28;20040;-58
2023/01/16 06:13:01;;;;;;;129.98;60.22;;;5.10;99.90;;;;;;5074130;28;20055;-58
2023/01/16 06:15:28;;;;;;;117.80;55.92;;;5.10;99.90;;;;;;5071924;28;20079;-58
2023/01/16 06:17:55;;;;;;;130.00;58.60;;;5.10;99.90;;;;;;5073435;28;20029;-58
2023/01/16 06:20:21;;;;;;;128.30;56.55;;;4.90;99.90;;;;;;5058700;28;20028;-58
2023/01/16 06:22:47;;;;;;;120.25;52.40;;;5.00;99.90;;;;;;5058279;28;20025;-58
2023/01/16 06:25:13;;;;;;;114.85;55.17;;;5.10;99.90;;;;;;5052597;28;20040;-58
2023/01/16 06:27:39;;;;;;;142.20;63.03;;;4.90;99.90;;;;;;5063323;28;20392;-58
2023/01/16 06:30:07;;;;;;;127.63;60.10;;;4.90;99.90;;;;;;5077605;28;20033;-58
2023/01/16 06:32:33;;;;;;;136.07;65.40;;;4.90;99.90;;;;;;5065588;28;20057;-58
2023/01/16 06:34:59;;;;;;;122.47;57.15;;;4.80;99.90;;;;;;5055147;28;20126;-58
2023/01/16 06:37:24;;;;;;;142.90;65.68;;;4.80;99.90;;;;;;5057377;28;20037;-58
2023/01/16 06:39:50;;;;;;;135.30;62.78;;;4.80;99.90;;;;;;5054661;28;20066;-58
2023/01/16 06:42:16;;;;;;;128.85;62.53;;;4.70;99.90;;;;;;5056381;28;20025;-58
2023/01/16 06:44:44;;;;;;;132.35;62.20;;;4.70;99.90;;;;;;5058249;28;20317;-58
2023/01/16 06:47:10;;;;;;;134.60;61.80;;;4.60;99.90;;;;;;5076878;28;20474;-58
2023/01/16 06:49:35;;;;;;;114.55;53.97;;;4.70;99.90;;;;;;5065658;28;20108;-58
2023/01/16 06:52:01;;;;;;;115.65;55.97;;;4.80;99.90;;;;;;5056986;28;20052;-58
2023/01/16 06:54:27;;;;;;;115.40;54.80;;;4.60;99.90;;;;;;5056968;28;20071;-57
2023/01/16 06:56:53;;;;;;;106.97;51.63;;;4.50;99.90;;;;;;5057087;28;20072;-58
2023/01/16 06:59:19;;;;;;;117.85;55.22;;;4.60;99.90;;;;;;5056882;28;20140;-58
2023/01/16 07:01:45;;;;;;;112.20;52.80;;;4.50;99.90;;;;;;5056968;28;20021;-58
2023/01/16 07:04:11;;;;;;;102.57;48.72;;;4.50;99.90;;;;;;5057374;28;20021;-58
2023/01/16 07:06:39;;;;;;;110.53;52.60;;;4.50;99.90;;;;;;5055829;28;20101;-58
2023/01/16 07:09:05;;;;;;;113.82;52.55;;;4.60;99.90;;;;;;5057069;28;20020;-58
2023/01/16 07:11:31;;;;;;;118.47;53.92;;;4.60;99.90;;;;;;5056925;28;20179;-58
2023/01/16 07:24:58;;;;;;;151.07;69.10;;;4.80;99.90;;;;;;5036518;28;20060;-57
2023/01/16 07:27:24;;;;;;;144.95;67.35;;;4.80;99.90;;;;;;5036417;28;20042;-58
2023/01/16 07:29:51;;;;;;;134.38;63.15;;;4.80;99.90;;;;;;5035562;28;20021;-58
2023/01/16 07:32:17;;;;;;;173.88;83.82;;;4.90;99.90;;;;;;5056143;28;20146;-58
2023/01/16 07:34:43;;;;;;;159.80;73.65;;;5.10;99.90;;;;;;5054900;28;20383;-58
2023/01/16 07:37:10;;;;;;;164.32;78.65;;;5.10;99.90;;;;;;5048422;28;20029;-58
2023/01/16 07:39:39;;;;;;;161.18;80.03;;;5.10;99.90;;;;;;5037813;28;20033;-58
2023/01/16 07:42:06;;;;;;;167.35;78.97;;;5.20;99.90;;;;;;5048127;28;20025;-58
2023/01/16 07:44:32;;;;;;;165.85;79.25;;;5.30;99.90;;;;;;5049644;28;20144;-58
2023/01/16 07:46:58;;;;;;;163.55;84.25;;;5.40;99.90;;;;;;5036673;28;20065;-58
2023/01/16 07:49:24;;;;;;;168.13;79.50;;;5.40;99.90;;;;;;5034424;28;20029;-58
2023/01/16 07:51:50;;;;;;;175.80;84.82;;;5.50;99.90;;;;;;5035622;28;20017;-58
2023/01/16 07:54:16;;;;;;;193.00;86.97;;;5.50;99.90;;;;;;5049233;28;20033;-58
2023/01/16 07:56:42;;;;;;;183.95;86.82;;;5.50;99.90;;;;;;5044873;28;20044;-58
2023/01/16 07:59:08;;;;;;;189.75;82.72;;;5.60;99.90;;;;;;5035833;28;20038;-58
2023/01/16 08:01:34;;;;;;;187.13;87.97;;;5.70;99.90;;;;;;5035702;28;20028;-58
2023/01/16 08:04:00;;;;;;;192.05;91.15;;;5.80;99.90;;;;;;5035700;28;20557;-58
2023/01/16 08:06:26;;;;;;;236.25;114.47;;;5.80;99.90;;;;;;5035172;28;20084;-58
2023/01/16 08:08:56;;;;;;;262.15;122.05;;;5.90;99.90;;;;;;5033545;28;20101;-59
2023/01/16 08:11:38;;;;;;;246.65;118.32;;;5.90;99.90;;;;;;5059963;28;20491;-58
2023/01/16 08:14:06;;;;;;;225.00;106.95;;;6.10;99.90;;;;;;5063193;28;20119;-58
2023/01/16 08:16:33;;;;;;;202.48;98.03;;;6.20;99.90;;;;;;5064203;28;20078;-58
2023/01/16 08:18:59;;;;;;;187.95;93.53;;;6.20;99.90;;;;;;5056644;28;20028;-59
2023/01/16 08:21:26;;;;;;;177.18;82.88;;;6.30;99.90;;;;;;5054680;28;20032;-58
2023/01/16 08:23:52;;;;;;;189.80;84.22;;;6.40;99.90;;;;;;5055093;28;20037;-58
2023/01/16 08:26:18;;;;;;;193.15;91.43;;;6.50;99.90;;;;;;5055324;28;20040;-59
2023/01/16 08:28:44;;;;;;;196.35;89.00;;;6.60;99.90;;;;;;5054382;28;20143;-59
2023/01/16 08:31:15;;;;;;;200.15;92.15;;;6.70;99.90;;;;;;5059468;28;20033;-59
2023/01/16 08:33:43;;;;;;;202.18;93.22;;;6.90;99.90;;;;;;5056209;28;20111;-58
2023/01/16 08:36:11;;;;;;;226.88;102.75;;;7.00;99.90;;;;;;5055568;28;20090;-59
2023/01/16 08:38:37;;;;;;;250.07;116.10;;;7.20;99.90;;;;;;5063369;28;20020;-59
2023/01/16 08:41:04;;;;;;;236.52;113.13;;;7.20;99.90;;;;;;5053523;28;20021;-59
2023/01/16 08:51:58;;;;;;;244.05;118.72;;;7.70;99.90;;;;;;5050518;28;20163;-59
2023/01/16 08:54:25;;;;;;;233.68;107.35;;;7.80;99.90;;;;;;5054620;28;20041;-59
2023/01/16 08:56:51;;;;;;;216.43;107.10;;;7.90;99.90;;;;;;5055167;28;20493;-59
2023/01/16 08:59:16;;;;;;;225.98;106.47;;;8.00;99.90;;;;;;5055015;28;20028;-59
2023/01/16 09:01:42;;;;;;;218.35;97.50;;;8.10;99.90;;;;;;5054608;28;20029;-59
2023/01/16 09:04:09;;;;;;;220.70;105.15;;;8.10;99.90;;;;;;5054129;28;20092;-59
2023/01/16 09:06:35;;;;;;;211.02;99.38;;;8.20;99.90;;;;;;5055412;28;20041;-59
2023/01/16 09:09:06;;;;;;;200.40;92.43;;;8.40;99.90;;;;;;5055291;28;20132;-59
2023/01/16 09:14:20;;;;;;;194.48;87.47;;;8.60;99.90;;;;;;5053828;28;20033;-59
2023/01/16 09:16:46;;;;;;;224.65;90.93;;;8.70;99.90;;;;;;5053949;28;20474;-59
2023/01/16 09:19:12;;;;;;;198.82;86.80;;;8.80;99.90;;;;;;5054197;28;20029;-59
2023/01/16 09:21:38;;;;;;;180.18;86.00;;;8.90;99.90;;;;;;5055046;28;20021;-59
2023/01/16 09:24:05;;;;;;;220.45;85.30;;;9.00;99.90;;;;;;5054487;28;20432;-59
2023/01/16 09:26:32;;;;;;;193.13;76.47;;;9.20;99.90;;;;;;5053632;28;20128;-58
2023/01/16 09:28:58;;;;;;;170.05;70.43;;;9.30;99.90;;;;;;5055016;28;20120;-59
2023/01/16 09:31:23;;;;;;;165.57;65.47;;;9.40;98.70;;;;;;5059726;28;20078;-59
2023/01/16 09:33:51;;;;;;;146.75;62.85;;;9.70;98.70;;;;;;5055050;28;20455;-59
2023/01/16 09:36:17;;;;;;;128.63;48.33;;;9.90;98.90;;;;;;5054723;28;20037;-59
2023/01/16 09:38:42;;;;;;;109.40;48.17;;;10.10;97.10;;;;;;5054967;28;20039;-59
2023/01/16 09:43:35;;;;;;;99.88;41.90;;;10.30;96.20;;;;;;5054967;28;20021;-59
2023/01/16 09:44:04;;;;;;;113.13;45.67;;;10.60;95.40;;;;;;5057758;28;20025;-59
2023/01/16 09:46:34;;;;;;;106.32;47.90;;;10.80;93.00;;;;;;5054866;28;20166;-59
2023/01/16 09:49:05;;;;;;;121.63;49.63;;;11.00;91.30;;;;;;5054768;28;20043;-59
2023/01/16 09:58:34;;;;;;;107.80;49.17;;;11.20;91.90;;;;;;5054927;28;20471;-59
2023/01/16 10:00:08;;;;;;;92.28;40.97;;;12.10;88.90;;;;;;5054333;28;20090;-59
2023/01/16 10:02:36;;;;;;;57.00;24.50;;;12.30;90.00;;;;;;5053886;28;20482;-59
2023/01/16 10:05:04;;;;;;;44.88;23.95;;;12.80;84.40;;;;;;5053838;28;20390;-59
2023/01/16 10:08:11;;;;;;;52.65;24.40;;;13.30;84.70;;;;;;5053321;28;20025;-59
2023/01/16 10:10:55;;;;;;;67.25;23.67;;;14.80;74.50;;;;;;5040884;28;20613;-59
2023/01/16 10:13:53;;;;;;;60.92;23.38;;;15.40;66.90;;;;;;5033805;28;20030;-59
2023/01/16 10:16:42;;;;;;;56.83;24.35;;;15.70;64.50;;;;;;5000303;28;20125;-59
2023/01/16 10:19:33;;;;;;;63.45;26.67;;;15.60;65.90;;;;;;5030181;28;20029;-60
2023/01/16 10:22:09;;;;;;;58.95;22.92;;;15.40;64.50;;;;;;5034016;28;20033;-60
2023/01/16 10:25:03;;;;;;;68.10;28.00;;;15.20;64.50;;;;;;5033747;28;20029;-60
2023/01/16 10:27:38;;;;;;;42.03;17.98;;;15.10;64.10;;;;;;5033352;28;20039;-60
2023/01/16 10:30:13;;;;;;;27.27;11.00;;;14.70;63.80;;;;;;5033226;28;20030;-59
2023/01/16 10:32:45;;;;;;;45.15;10.23;;;14.60;64.70;;;;;;5046168;28;20123;-59
2023/01/16 10:35:45;;;;;;;18.08;5.65;;;14.60;64.80;;;;;;5041261;28;20036;-59
2023/01/16 10:38:43;;;;;;;24.52;6.05;;;14.60;63.70;;;;;;5014306;28;20037;-59
2023/01/16 10:50:29;;;;;;;20.75;5.05;;;14.20;64.60;;;;;;4996218;28;20045;-59
2023/01/16 10:52:55;;;;;;;8.52;3.83;;;14.20;64.30;;;;;;5013248;28;20108;-59
2023/01/16 10:55:21;;;;;;;10.55;3.20;;;14.20;63.50;;;;;;5013551;28;20048;-59
2023/01/16 10:57:53;;;;;;;15.23;4.30;;;14.20;63.40;;;;;;5013953;28;20026;-59
2023/01/16 11:00:29;;;;;;;14.95;5.05;;;14.20;63.80;;;;;;5013385;28;20094;-59
2023/01/16 11:03:34;;;;;;;16.27;4.47;;;14.20;63.80;;;;;;5013683;28;20464;-59
2023/01/16 11:06:26;;;;;;;20.38;4.88;;;14.20;64.20;;;;;;5036400;28;20036;-59
2023/01/16 11:09:04;;;;;;;17.23;4.72;;;14.40;63.10;;;;;;5038890;28;20494;-59
2023/01/16 11:20:32;;;;;;;21.70;5.03;;;14.70;62.00;;;;;;5056182;28;20029;-59
2023/01/16 11:23:14;;;;;;;12.77;4.57;;;14.70;62.10;;;;;;5056417;28;20074;-59
2023/01/16 11:25:41;;;;;;;10.02;3.97;;;14.80;61.60;;;;;;5056450;28;20029;-59
2023/01/16 11:28:12;;;;;;;13.70;4.18;;;14.90;62.40;;;;;;5056206;28;20324;-59
2023/01/16 11:30:42;;;;;;;13.73;4.32;;;14.90;63.90;;;;;;5055809;28;20021;-59
2023/01/16 11:33:37;;;;;;;42.60;6.35;;;14.70;62.10;;;;;;5056251;28;20029;-59
2023/01/16 11:36:05;;;;;;;33.60;5.75;;;14.60;61.10;;;;;;5052847;28;20134;-59
2023/01/16 11:38:35;;;;;;;14.05;3.90;;;14.50;61.80;;;;;;5059213;28;20028;-59
2023/01/16 11:41:03;;;;;;;;;;;14.40;62.30;;;;;;5066130;28;20079;-59
2023/01/16 11:46:36;;;;;;;18.75;4.47;;;14.20;61.80;;;;;;5055518;28;20040;-59
2023/01/16 11:49:16;;;;;;;8.70;3.38;;;14.20;62.70;;;;;;5056788;28;20041;-59
2023/01/16 11:51:42;;;;;;;6.27;2.80;;;14.20;62.80;;;;;;5055948;28;20400;-59
2023/01/16 11:54:16;;;;;;;27.23;5.75;;;14.10;63.10;;;;;;5056119;28;20029;-59
2023/01/16 11:57:09;;;;;;;34.97;5.70;;;14.00;66.40;;;;;;5055879;28;20032;-59
2023/01/16 11:59:50;;;;;;;286.50;120.95;;;13.90;66.20;;;;;;5056171;28;20031;-59
2023/01/16 12:02:27;;;;;;;62.83;21.83;;;13.90;65.90;;;;;;5055757;28;20032;-59
2023/01/16 12:08:21;;;;;;;15.70;6.47;;;13.70;68.30;;;;;;5055664;28;20025;-58
2023/01/16 12:11:13;;;;;;;14.23;5.72;;;13.70;68.70;;;;;;5055456;28;20049;-59
2023/01/16 12:14:18;;;;;;;12.35;5.85;;;13.70;69.10;;;;;;5055654;28;20017;-59
2023/01/16 12:17:02;;;;;;;31.95;18.13;;;13.60;69.10;;;;;;5054725;28;20158;-59
2023/01/16 12:19:55;;;;;;;16.67;7.97;;;13.60;70.30;;;;;;5055387;28;20032;-59
2023/01/16 12:22:51;;;;;;;17.92;8.98;;;13.50;71.80;;;;;;5055402;28;20433;-59
2023/01/16 12:25:37;;;;;;;42.20;23.67;;;13.50;73.50;;;;;;5055360;28;20036;-59
2023/01/16 12:28:47;;;;;;;17.55;9.05;;;13.00;83.80;;;;;;5055132;28;20037;-59
2023/01/16 12:31:41;;;;;;;20.38;9.82;;;13.00;86.40;;;;;;4965382;28;20054;-59
2023/01/16 12:34:16;;;;;;;19.75;10.07;;;12.60;89.40;;;;;;5053085;28;20041;-59
2023/01/16 12:36:51;;;;;;;35.13;20.73;;;12.40;90.90;;;;;;5054365;28;20414;-59
2023/01/16 12:39:26;;;;;;;40.88;20.73;;;12.30;91.90;;;;;;5054467;28;20025;-59
2023/01/16 12:45:26;;;;;;;35.33;17.30;;;12.10;92.70;;;;;;5052657;28;20025;-59
2023/01/16 12:48:31;;;;;;;51.80;26.33;;;12.00;95.40;;;;;;5054020;28;20154;-59
2023/01/16 12:51:12;;;;;;;47.08;22.75;;;11.70;98.90;;;;;;5041591;28;20037;-59
2023/01/16 12:54:00;;;;;;;57.22;27.13;;;11.60;99.90;;;;;;5054725;28;20108;-59
2023/01/16 12:56:39;;;;;;;97.15;38.10;;;11.50;99.90;;;;;;5054810;28;20033;-59
2023/01/16 12:59:37;;;;;;;81.90;38.22;;;11.40;99.90;;;;;;5054530;28;20021;-59
2023/01/16 13:02:23;;;;;;;62.00;28.63;;;11.30;99.90;;;;;;5022187;28;20068;-59
2023/01/16 13:05:04;;;;;;;60.63;29.33;;;11.20;99.90;;;;;;5054637;28;20032;-59
2023/01/16 13:07:36;;;;;;;52.95;25.67;;;11.00;99.90;;;;;;5054648;28;20083;-59
2023/01/16 13:13:21;;;;;;;;;;;10.50;99.90;;;;;;5055032;28;20029;-59
2023/01/16 13:15:54;;;;;;;41.72;21.00;;;10.40;99.90;;;;;;5032798;28;19917;-58
2023/01/16 13:18:25;;;;;;;37.53;20.75;;;10.10;99.90;;;;;;5033889;28;20104;-58
2023/01/16 13:20:57;;;;;;;33.38;20.35;;;9.80;99.90;;;;;;5034713;28;20052;-58
2023/01/16 13:23:32;;;;;;;34.60;19.70;;;9.50;99.90;;;;;;5033903;28;20051;-58
2023/01/16 13:26:06;;;;;;;33.75;20.20;;;9.20;99.90;;;;;;5034621;28;20029;-58
2023/01/16 13:29:09;;;;;;;30.23;18.05;;;9.10;99.90;;;;;;5033768;28;20026;-58
2023/01/16 13:31:49;;;;;;;31.50;18.25;;;8.80;99.90;;;;;;5047936;28;20167;-58
2023/01/16 13:34:15;;;;;;;;;;;8.70;99.90;;;;;;5054731;28;20037;-58
2023/01/16 13:37:32;;;;;;;30.17;17.27;;;8.40;99.90;;;;;;5054069;28;19924;-58
2023/01/16 13:40:12;;;;;;;35.15;19.67;;;8.20;99.90;;;;;;5050023;28;20037;-58
2023/01/16 13:42:41;;;;;;;;;;;8.20;99.90;;;;;;5048221;28;20448;-58
2023/01/16 13:48:03;;;;;;;35.10;18.65;;;8.10;99.90;;;;;;5031347;28;20018;-58
2023/01/16 13:50:31;;;;;;;32.53;17.90;;;8.00;99.90;;;;;;5034080;28;20381;-58
2023/01/16 13:53:07;;;;;;;41.00;18.33;;;7.90;99.90;;;;;;5046834;28;20031;-58
2023/01/16 13:55:40;;;;;;;44.53;19.17;;;7.80;99.90;;;;;;5029998;28;20021;-58
2023/01/16 13:58:10;;;;;;;28.60;16.88;;;7.90;99.90;;;;;;5028162;28;20044;-58